sensor_id;sensor_type;location;lat;lon;timestamp;P1;durP1;ratioP1;P2;durP2;ratioP2
7158;SDS011;63175;52.374;13.132;2023-07-28T00:01:32;1.70;;;1.63;;
7158;SDS011;63175;52.374;13.132;2023-07-28T00:03:59;1.53;;;1.43;;
7158;SDS011;63175;52.374;13.132;2023-07-28T00:06:27;1.93;;;1.30;;
7158;SDS011;63175;52.374;13.132;2023-07-28T00:08:54;1.77;;;1.67;;
7158;SDS011;63175;52.374;13.132;2023-07-28T00:11:21;4.00;;;1.93;;
7158;SDS011;63175;52.374;13.132;2023-07-28T00:13:48;2.87;;;1.27;;
7158;SDS011;63175;52.374;13.132;2023-07-28T00:16:14;1.10;;;1.10;;
7158;SDS011;63175;52.374;13.132;2023-07-28T00:18:41;1.47;;;1.47;;
7158;SDS011;63175;52.374;13.132;2023-07-28T00:21:08;8.57;;;1.20;;
7158;SDS011;63175;52.374;13.132;2023-07-28T00:23:36;2.30;;;1.20;;
7158;SDS011;63175;52.374;13.132;2023-07-28T00:26:03;1.20;;;1.10;;
7158;SDS011;63175;52.374;13.132;2023-07-28T00:28:30;1.33;;;1.27;;
7158;SDS011;63175;52.374;13.132;2023-07-28T00:30:57;1.37;;;1.03;;
7158;SDS011;63175;52.374;13.132;2023-07-28T00:33:24;1.10;;;1.00;;
7158;SDS011;63175;52.374;13.132;2023-07-28T00:35:50;0.70;;;0.70;;
7158;SDS011;63175;52.374;13.132;2023-07-28T00:38:17;0.70;;;0.70;;
7158;SDS011;63175;52.374;13.132;2023-07-28T00:40:47;1.10;;;1.00;;
7158;SDS011;63175;52.374;13.132;2023-07-28T00:43:13;0.70;;;0.70;;
7158;SDS011;63175;52.374;13.132;2023-07-28T00:45:40;1.50;;;0.90;;
7158;SDS011;63175;52.374;13.132;2023-07-28T00:48:10;1.67;;;0.83;;
7158;SDS011;63175;52.374;13.132;2023-07-28T00:50:38;0.80;;;0.80;;
7158;SDS011;63175;52.374;13.132;2023-07-28T00:53:06;1.10;;;1.10;;
7158;SDS011;63175;52.374;13.132;2023-07-28T00:55:33;0.87;;;0.87;;
7158;SDS011;63175;52.374;13.132;2023-07-28T00:58:02;0.90;;;0.90;;
7158;SDS011;63175;52.374;13.132;2023-07-28T01:00:28;0.93;;;0.60;;
7158;SDS011;63175;52.374;13.132;2023-07-28T01:02:56;0.80;;;0.70;;
7158;SDS011;63175;52.374;13.132;2023-07-28T01:05:28;0.70;;;0.70;;
7158;SDS011;63175;52.374;13.132;2023-07-28T01:08:02;0.80;;;0.80;;
7158;SDS011;63175;52.374;13.132;2023-07-28T01:10:33;0.67;;;0.67;;
7158;SDS011;63175;52.374;13.132;2023-07-28T01:13:02;0.70;;;0.70;;
7158;SDS011;63175;52.374;13.132;2023-07-28T01:15:29;0.67;;;0.67;;
7158;SDS011;63175;52.374;13.132;2023-07-28T01:17:56;0.70;;;0.60;;
7158;SDS011;63175;52.374;13.132;2023-07-28T01:20:23;1.00;;;1.00;;
7158;SDS011;63175;52.374;13.132;2023-07-28T01:23:05;1.00;;;1.00;;
7158;SDS011;63175;52.374;13.132;2023-07-28T01:25:36;0.80;;;0.80;;
7158;SDS011;63175;52.374;13.132;2023-07-28T01:28:15;0.90;;;0.90;;
7158;SDS011;63175;52.374;13.132;2023-07-28T01:30:43;0.80;;;0.80;;
7158;SDS011;63175;52.374;13.132;2023-07-28T01:33:11;1.37;;;0.90;;
7158;SDS011;63175;52.374;13.132;2023-07-28T01:35:38;0.77;;;0.77;;
7158;SDS011;63175;52.374;13.132;2023-07-28T01:38:05;0.80;;;0.70;;
7158;SDS011;63175;52.374;13.132;2023-07-28T01:40:32;1.73;;;0.90;;
7158;SDS011;63175;52.374;13.132;2023-07-28T01:42:59;2.30;;;1.37;;
7158;SDS011;63175;52.374;13.132;2023-07-28T01:45:27;1.37;;;1.37;;
7158;SDS011;63175;52.374;13.132;2023-07-28T01:47:54;1.10;;;1.10;;
7158;SDS011;63175;52.374;13.132;2023-07-28T01:50:21;1.20;;;1.20;;
7158;SDS011;63175;52.374;13.132;2023-07-28T01:52:48;1.33;;;1.33;;
7158;SDS011;63175;52.374;13.132;2023-07-28T01:55:16;5.80;;;1.27;;
7158;SDS011;63175;52.374;13.132;2023-07-28T01:57:49;1.40;;;1.40;;
7158;SDS011;63175;52.374;13.132;2023-07-28T02:00:17;1.73;;;1.63;;
7158;SDS011;63175;52.374;13.132;2023-07-28T02:02:46;1.60;;;1.50;;
7158;SDS011;63175;52.374;13.132;2023-07-28T02:05:13;1.90;;;1.80;;
7158;SDS011;63175;52.374;13.132;2023-07-28T02:07:40;1.50;;;1.50;;
7158;SDS011;63175;52.374;13.132;2023-07-28T02:10:07;1.47;;;1.47;;
7158;SDS011;63175;52.374;13.132;2023-07-28T02:12:35;1.47;;;1.37;;
7158;SDS011;63175;52.374;13.132;2023-07-28T02:15:03;1.20;;;1.20;;
7158;SDS011;63175;52.374;13.132;2023-07-28T02:17:31;2.33;;;2.23;;
7158;SDS011;63175;52.374;13.132;2023-07-28T02:19:59;1.57;;;1.57;;
7158;SDS011;63175;52.374;13.132;2023-07-28T02:22:26;1.43;;;1.43;;
7158;SDS011;63175;52.374;13.132;2023-07-28T02:24:53;1.50;;;1.47;;
7158;SDS011;63175;52.374;13.132;2023-07-28T02:27:20;1.60;;;1.60;;
7158;SDS011;63175;52.374;13.132;2023-07-28T02:29:46;2.27;;;2.17;;
7158;SDS011;63175;52.374;13.132;2023-07-28T02:32:14;1.50;;;1.40;;
7158;SDS011;63175;52.374;13.132;2023-07-28T02:34:40;1.40;;;1.40;;
7158;SDS011;63175;52.374;13.132;2023-07-28T02:37:09;1.80;;;1.80;;
7158;SDS011;63175;52.374;13.132;2023-07-28T02:39:36;1.30;;;1.30;;
7158;SDS011;63175;52.374;13.132;2023-07-28T02:42:03;1.60;;;1.60;;
7158;SDS011;63175;52.374;13.132;2023-07-28T02:44:31;2.00;;;1.90;;
7158;SDS011;63175;52.374;13.132;2023-07-28T02:46:58;2.70;;;1.57;;
7158;SDS011;63175;52.374;13.132;2023-07-28T02:49:25;1.60;;;1.50;;
7158;SDS011;63175;52.374;13.132;2023-07-28T02:51:52;1.80;;;1.70;;
7158;SDS011;63175;52.374;13.132;2023-07-28T02:54:20;1.33;;;1.33;;
7158;SDS011;63175;52.374;13.132;2023-07-28T02:56:48;1.60;;;1.60;;
7158;SDS011;63175;52.374;13.132;2023-07-28T02:59:15;1.80;;;1.70;;
7158;SDS011;63175;52.374;13.132;2023-07-28T03:01:42;1.83;;;1.83;;
7158;SDS011;63175;52.374;13.132;2023-07-28T03:04:09;2.90;;;1.83;;
7158;SDS011;63175;52.374;13.132;2023-07-28T03:06:36;1.60;;;1.50;;
7158;SDS011;63175;52.374;13.132;2023-07-28T03:09:02;1.70;;;1.60;;
7158;SDS011;63175;52.374;13.132;2023-07-28T03:11:31;1.70;;;1.70;;
7158;SDS011;63175;52.374;13.132;2023-07-28T03:13:57;2.33;;;2.23;;
7158;SDS011;63175;52.374;13.132;2023-07-28T03:16:24;2.07;;;1.97;;
7158;SDS011;63175;52.374;13.132;2023-07-28T03:18:51;2.23;;;2.13;;
7158;SDS011;63175;52.374;13.132;2023-07-28T03:21:18;2.10;;;2.00;;
7158;SDS011;63175;52.374;13.132;2023-07-28T03:23:45;2.90;;;2.20;;
7158;SDS011;63175;52.374;13.132;2023-07-28T03:26:11;1.80;;;1.80;;
7158;SDS011;63175;52.374;13.132;2023-07-28T03:28:40;2.07;;;1.87;;
7158;SDS011;63175;52.374;13.132;2023-07-28T03:31:06;2.57;;;2.40;;
7158;SDS011;63175;52.374;13.132;2023-07-28T03:33:33;1.80;;;1.70;;
7158;SDS011;63175;52.374;13.132;2023-07-28T03:36:00;2.43;;;2.20;;
7158;SDS011;63175;52.374;13.132;2023-07-28T03:38:27;2.27;;;2.17;;
7158;SDS011;63175;52.374;13.132;2023-07-28T03:40:54;2.03;;;1.93;;
7158;SDS011;63175;52.374;13.132;2023-07-28T03:43:21;1.90;;;1.90;;
7158;SDS011;63175;52.374;13.132;2023-07-28T03:45:49;2.33;;;2.23;;
7158;SDS011;63175;52.374;13.132;2023-07-28T03:48:16;2.80;;;2.70;;
7158;SDS011;63175;52.374;13.132;2023-07-28T03:50:43;2.20;;;2.10;;
7158;SDS011;63175;52.374;13.132;2023-07-28T03:53:09;1.67;;;1.67;;
7158;SDS011;63175;52.374;13.132;2023-07-28T03:55:36;2.27;;;2.17;;
7158;SDS011;63175;52.374;13.132;2023-07-28T03:58:03;4.23;;;2.20;;
7158;SDS011;63175;52.374;13.132;2023-07-28T04:00:30;2.27;;;2.17;;
7158;SDS011;63175;52.374;13.132;2023-07-28T04:02:58;2.50;;;2.30;;
7158;SDS011;63175;52.374;13.132;2023-07-28T04:05:25;2.27;;;2.13;;
7158;SDS011;63175;52.374;13.132;2023-07-28T04:07:52;2.67;;;2.57;;
7158;SDS011;63175;52.374;13.132;2023-07-28T04:10:19;2.93;;;2.63;;
7158;SDS011;63175;52.374;13.132;2023-07-28T04:12:46;2.37;;;2.27;;
7158;SDS011;63175;52.374;13.132;2023-07-28T04:15:14;5.47;;;2.67;;
7158;SDS011;63175;52.374;13.132;2023-07-28T04:17:41;3.20;;;3.00;;
7158;SDS011;63175;52.374;13.132;2023-07-28T04:20:09;2.40;;;2.30;;
7158;SDS011;63175;52.374;13.132;2023-07-28T04:22:37;2.50;;;2.30;;
7158;SDS011;63175;52.374;13.132;2023-07-28T04:25:04;2.47;;;2.37;;
7158;SDS011;63175;52.374;13.132;2023-07-28T04:27:31;2.50;;;2.40;;
7158;SDS011;63175;52.374;13.132;2023-07-28T04:29:58;2.40;;;2.20;;
7158;SDS011;63175;52.374;13.132;2023-07-28T04:32:25;2.50;;;2.40;;
7158;SDS011;63175;52.374;13.132;2023-07-28T04:34:52;2.70;;;2.50;;
7158;SDS011;63175;52.374;13.132;2023-07-28T04:37:21;3.00;;;2.90;;
7158;SDS011;63175;52.374;13.132;2023-07-28T04:39:47;2.90;;;2.80;;
7158;SDS011;63175;52.374;13.132;2023-07-28T04:42:15;3.90;;;2.50;;
7158;SDS011;63175;52.374;13.132;2023-07-28T04:44:42;2.50;;;2.40;;
7158;SDS011;63175;52.374;13.132;2023-07-28T04:47:10;2.80;;;2.67;;
7158;SDS011;63175;52.374;13.132;2023-07-28T04:49:37;2.87;;;2.70;;
7158;SDS011;63175;52.374;13.132;2023-07-28T04:52:05;2.40;;;2.30;;
7158;SDS011;63175;52.374;13.132;2023-07-28T04:54:34;2.77;;;2.67;;
7158;SDS011;63175;52.374;13.132;2023-07-28T04:57:01;2.40;;;2.30;;
7158;SDS011;63175;52.374;13.132;2023-07-28T04:59:28;3.30;;;2.53;;
7158;SDS011;63175;52.374;13.132;2023-07-28T05:01:55;2.80;;;2.70;;
7158;SDS011;63175;52.374;13.132;2023-07-28T05:04:22;2.80;;;2.70;;
7158;SDS011;63175;52.374;13.132;2023-07-28T05:06:49;2.30;;;2.20;;
7158;SDS011;63175;52.374;13.132;2023-07-28T05:09:16;2.90;;;2.70;;
7158;SDS011;63175;52.374;13.132;2023-07-28T05:11:44;4.53;;;3.10;;
7158;SDS011;63175;52.374;13.132;2023-07-28T05:14:11;2.57;;;2.47;;
7158;SDS011;63175;52.374;13.132;2023-07-28T05:16:38;2.60;;;2.50;;
7158;SDS011;63175;52.374;13.132;2023-07-28T05:19:05;2.60;;;2.50;;
7158;SDS011;63175;52.374;13.132;2023-07-28T05:21:33;2.80;;;2.70;;
7158;SDS011;63175;52.374;13.132;2023-07-28T05:23:59;2.50;;;2.40;;
7158;SDS011;63175;52.374;13.132;2023-07-28T05:26:26;3.00;;;2.90;;
7158;SDS011;63175;52.374;13.132;2023-07-28T05:28:54;2.20;;;2.10;;
7158;SDS011;63175;52.374;13.132;2023-07-28T05:31:21;2.40;;;2.30;;
7158;SDS011;63175;52.374;13.132;2023-07-28T05:33:48;2.00;;;2.00;;
7158;SDS011;63175;52.374;13.132;2023-07-28T05:36:15;2.40;;;2.30;;
7158;SDS011;63175;52.374;13.132;2023-07-28T05:38:42;2.07;;;1.97;;
7158;SDS011;63175;52.374;13.132;2023-07-28T05:41:09;1.83;;;1.83;;
7158;SDS011;63175;52.374;13.132;2023-07-28T05:43:35;2.60;;;2.40;;
7158;SDS011;63175;52.374;13.132;2023-07-28T05:46:04;2.07;;;1.97;;
7158;SDS011;63175;52.374;13.132;2023-07-28T05:48:30;1.77;;;1.77;;
7158;SDS011;63175;52.374;13.132;2023-07-28T05:50:57;2.43;;;2.33;;
7158;SDS011;63175;52.374;13.132;2023-07-28T05:53:24;2.37;;;2.27;;
7158;SDS011;63175;52.374;13.132;2023-07-28T05:55:51;2.20;;;2.10;;
7158;SDS011;63175;52.374;13.132;2023-07-28T05:58:18;2.00;;;1.90;;
7158;SDS011;63175;52.374;13.132;2023-07-28T06:00:45;2.10;;;2.00;;
7158;SDS011;63175;52.374;13.132;2023-07-28T06:03:14;2.37;;;2.27;;
7158;SDS011;63175;52.374;13.132;2023-07-28T06:05:41;1.97;;;1.87;;
7158;SDS011;63175;52.374;13.132;2023-07-28T06:08:08;1.93;;;1.83;;
7158;SDS011;63175;52.374;13.132;2023-07-28T06:10:36;2.17;;;2.07;;
7158;SDS011;63175;52.374;13.132;2023-07-28T06:13:04;2.07;;;2.00;;
7158;SDS011;63175;52.374;13.132;2023-07-28T06:15:31;2.20;;;2.10;;
7158;SDS011;63175;52.374;13.132;2023-07-28T06:18:00;1.83;;;1.83;;
7158;SDS011;63175;52.374;13.132;2023-07-28T06:20:28;1.80;;;1.70;;
7158;SDS011;63175;52.374;13.132;2023-07-28T06:22:55;1.60;;;1.50;;
7158;SDS011;63175;52.374;13.132;2023-07-28T06:25:22;2.30;;;2.10;;
7158;SDS011;63175;52.374;13.132;2023-07-28T06:27:49;1.70;;;1.70;;
7158;SDS011;63175;52.374;13.132;2023-07-28T06:30:16;1.90;;;1.80;;
7158;SDS011;63175;52.374;13.132;2023-07-28T06:32:43;1.60;;;1.50;;
7158;SDS011;63175;52.374;13.132;2023-07-28T06:35:10;2.00;;;1.90;;
7158;SDS011;63175;52.374;13.132;2023-07-28T06:37:38;1.93;;;1.93;;
7158;SDS011;63175;52.374;13.132;2023-07-28T06:40:06;1.60;;;1.60;;
7158;SDS011;63175;52.374;13.132;2023-07-28T06:42:34;1.50;;;1.50;;
7158;SDS011;63175;52.374;13.132;2023-07-28T06:45:02;1.60;;;1.60;;
7158;SDS011;63175;52.374;13.132;2023-07-28T06:47:29;1.47;;;1.37;;
7158;SDS011;63175;52.374;13.132;2023-07-28T06:49:56;1.47;;;1.47;;
7158;SDS011;63175;52.374;13.132;2023-07-28T06:52:23;1.50;;;1.50;;
7158;SDS011;63175;52.374;13.132;2023-07-28T06:54:51;1.23;;;1.23;;
7158;SDS011;63175;52.374;13.132;2023-07-28T06:57:19;1.50;;;1.50;;
7158;SDS011;63175;52.374;13.132;2023-07-28T06:59:46;1.43;;;1.33;;
7158;SDS011;63175;52.374;13.132;2023-07-28T07:02:13;1.77;;;1.33;;
7158;SDS011;63175;52.374;13.132;2023-07-28T07:04:40;1.33;;;1.33;;
7158;SDS011;63175;52.374;13.132;2023-07-28T07:07:07;1.57;;;1.07;;
7158;SDS011;63175;52.374;13.132;2023-07-28T07:09:35;1.17;;;1.17;;
7158;SDS011;63175;52.374;13.132;2023-07-28T07:12:03;1.03;;;1.03;;
7158;SDS011;63175;52.374;13.132;2023-07-28T07:14:31;1.20;;;1.20;;
7158;SDS011;63175;52.374;13.132;2023-07-28T07:16:58;1.00;;;1.00;;
7158;SDS011;63175;52.374;13.132;2023-07-28T07:19:26;1.17;;;1.07;;
7158;SDS011;63175;52.374;13.132;2023-07-28T07:21:53;1.10;;;1.10;;
7158;SDS011;63175;52.374;13.132;2023-07-28T07:24:20;1.17;;;1.17;;
7158;SDS011;63175;52.374;13.132;2023-07-28T07:26:47;1.20;;;1.20;;
7158;SDS011;63175;52.374;13.132;2023-07-28T07:29:17;2.00;;;1.17;;
7158;SDS011;63175;52.374;13.132;2023-07-28T07:31:44;1.57;;;1.47;;
7158;SDS011;63175;52.374;13.132;2023-07-28T07:34:10;1.10;;;1.10;;
7158;SDS011;63175;52.374;13.132;2023-07-28T07:36:37;6.10;;;1.43;;
7158;SDS011;63175;52.374;13.132;2023-07-28T07:39:05;1.10;;;1.10;;
7158;SDS011;63175;52.374;13.132;2023-07-28T07:41:32;1.13;;;1.03;;
7158;SDS011;63175;52.374;13.132;2023-07-28T07:43:59;0.90;;;0.90;;
7158;SDS011;63175;52.374;13.132;2023-07-28T07:46:28;3.27;;;1.00;;
7158;SDS011;63175;52.374;13.132;2023-07-28T07:48:56;0.93;;;0.93;;
7158;SDS011;63175;52.374;13.132;2023-07-28T07:51:23;0.77;;;0.77;;
7158;SDS011;63175;52.374;13.132;2023-07-28T07:53:50;1.00;;;1.00;;
7158;SDS011;63175;52.374;13.132;2023-07-28T07:56:16;0.70;;;0.70;;
7158;SDS011;63175;52.374;13.132;2023-07-28T07:58:44;1.00;;;0.97;;
7158;SDS011;63175;52.374;13.132;2023-07-28T08:01:11;0.70;;;0.70;;
7158;SDS011;63175;52.374;13.132;2023-07-28T08:03:39;1.10;;;1.00;;
7158;SDS011;63175;52.374;13.132;2023-07-28T08:06:06;1.03;;;1.03;;
7158;SDS011;63175;52.374;13.132;2023-07-28T08:08:34;1.70;;;0.90;;
7158;SDS011;63175;52.374;13.132;2023-07-28T08:11:01;1.00;;;1.00;;
7158;SDS011;63175;52.374;13.132;2023-07-28T08:13:28;1.10;;;1.10;;
7158;SDS011;63175;52.374;13.132;2023-07-28T08:15:55;0.90;;;0.90;;
7158;SDS011;63175;52.374;13.132;2023-07-28T08:18:22;0.90;;;0.90;;
7158;SDS011;63175;52.374;13.132;2023-07-28T08:20:51;1.37;;;0.67;;
7158;SDS011;63175;52.374;13.132;2023-07-28T08:23:17;1.20;;;1.20;;
7158;SDS011;63175;52.374;13.132;2023-07-28T08:25:44;3.90;;;1.00;;
7158;SDS011;63175;52.374;13.132;2023-07-28T08:28:11;0.90;;;0.90;;
7158;SDS011;63175;52.374;13.132;2023-07-28T08:30:38;0.80;;;0.80;;
7158;SDS011;63175;52.374;13.132;2023-07-28T08:33:05;1.17;;;1.00;;
7158;SDS011;63175;52.374;13.132;2023-07-28T08:35:32;0.97;;;0.90;;
7158;SDS011;63175;52.374;13.132;2023-07-28T08:38:00;1.00;;;1.00;;
7158;SDS011;63175;52.374;13.132;2023-07-28T08:40:28;0.90;;;0.80;;
7158;SDS011;63175;52.374;13.132;2023-07-28T08:42:55;0.60;;;0.60;;
7158;SDS011;63175;52.374;13.132;2023-07-28T08:45:22;0.80;;;0.80;;
7158;SDS011;63175;52.374;13.132;2023-07-28T08:47:50;1.10;;;1.10;;
7158;SDS011;63175;52.374;13.132;2023-07-28T08:50:17;1.10;;;1.07;;
7158;SDS011;63175;52.374;13.132;2023-07-28T08:52:45;1.20;;;1.00;;
7158;SDS011;63175;52.374;13.132;2023-07-28T08:55:13;1.20;;;1.10;;
7158;SDS011;63175;52.374;13.132;2023-07-28T08:57:40;1.10;;;1.10;;
7158;SDS011;63175;52.374;13.132;2023-07-28T09:00:08;2.33;;;1.63;;
7158;SDS011;63175;52.374;13.132;2023-07-28T09:02:39;2.20;;;1.00;;
7158;SDS011;63175;52.374;13.132;2023-07-28T09:05:07;1.47;;;1.17;;
7158;SDS011;63175;52.374;13.132;2023-07-28T09:07:42;1.33;;;1.33;;
7158;SDS011;63175;52.374;13.132;2023-07-28T09:10:09;1.10;;;1.10;;
7158;SDS011;63175;52.374;13.132;2023-07-28T09:12:45;1.10;;;1.10;;
7158;SDS011;63175;52.374;13.132;2023-07-28T09:15:13;1.00;;;1.00;;
7158;SDS011;63175;52.374;13.132;2023-07-28T09:17:42;1.50;;;1.40;;
7158;SDS011;63175;52.374;13.132;2023-07-28T09:20:12;1.00;;;1.00;;
7158;SDS011;63175;52.374;13.132;2023-07-28T09:22:42;1.60;;;1.60;;
7158;SDS011;63175;52.374;13.132;2023-07-28T09:25:13;0.90;;;0.90;;
7158;SDS011;63175;52.374;13.132;2023-07-28T09:27:41;1.30;;;1.30;;
7158;SDS011;63175;52.374;13.132;2023-07-28T09:30:17;1.00;;;0.90;;
7158;SDS011;63175;52.374;13.132;2023-07-28T09:32:46;1.10;;;1.07;;
7158;SDS011;63175;52.374;13.132;2023-07-28T09:35:14;1.13;;;1.07;;
7158;SDS011;63175;52.374;13.132;2023-07-28T09:37:43;2.00;;;1.20;;
7158;SDS011;63175;52.374;13.132;2023-07-28T09:40:12;2.93;;;1.37;;
7158;SDS011;63175;52.374;13.132;2023-07-28T09:42:41;1.30;;;1.30;;
7158;SDS011;63175;52.374;13.132;2023-07-28T09:45:11;1.47;;;1.47;;
7158;SDS011;63175;52.374;13.132;2023-07-28T09:47:38;1.20;;;1.17;;
7158;SDS011;63175;52.374;13.132;2023-07-28T09:50:07;1.23;;;1.23;;
7158;SDS011;63175;52.374;13.132;2023-07-28T09:52:37;1.43;;;1.43;;
7158;SDS011;63175;52.374;13.132;2023-07-28T09:55:08;1.40;;;1.30;;
7158;SDS011;63175;52.374;13.132;2023-07-28T09:57:39;1.17;;;1.17;;
7158;SDS011;63175;52.374;13.132;2023-07-28T10:00:13;2.00;;;1.00;;
7158;SDS011;63175;52.374;13.132;2023-07-28T10:02:41;1.27;;;1.27;;
7158;SDS011;63175;52.374;13.132;2023-07-28T10:05:09;1.10;;;1.10;;
7158;SDS011;63175;52.374;13.132;2023-07-28T10:07:37;0.90;;;0.90;;
7158;SDS011;63175;52.374;13.132;2023-07-28T10:10:07;1.63;;;1.53;;
7158;SDS011;63175;52.374;13.132;2023-07-28T10:12:42;1.20;;;1.20;;
7158;SDS011;63175;52.374;13.132;2023-07-28T10:15:14;1.40;;;1.30;;
7158;SDS011;63175;52.374;13.132;2023-07-28T10:17:43;1.43;;;1.33;;
7158;SDS011;63175;52.374;13.132;2023-07-28T10:20:28;1.27;;;1.17;;
7158;SDS011;63175;52.374;13.132;2023-07-28T10:23:07;1.00;;;1.00;;
7158;SDS011;63175;52.374;13.132;2023-07-28T10:25:37;5.90;;;1.10;;
7158;SDS011;63175;52.374;13.132;2023-07-28T10:28:07;2.57;;;1.10;;
7158;SDS011;63175;52.374;13.132;2023-07-28T10:30:52;1.00;;;1.00;;
7158;SDS011;63175;52.374;13.132;2023-07-28T10:33:27;1.20;;;1.20;;
7158;SDS011;63175;52.374;13.132;2023-07-28T10:35:57;1.30;;;1.07;;
7158;SDS011;63175;52.374;13.132;2023-07-28T10:38:27;1.50;;;1.30;;
7158;SDS011;63175;52.374;13.132;2023-07-28T10:41:04;1.10;;;1.00;;
7158;SDS011;63175;52.374;13.132;2023-07-28T10:43:39;1.33;;;1.10;;
7158;SDS011;63175;52.374;13.132;2023-07-28T10:46:10;1.03;;;1.00;;
7158;SDS011;63175;52.374;13.132;2023-07-28T10:51:08;1.40;;;1.30;;
7158;SDS011;63175;52.374;13.132;2023-07-28T10:53:36;1.20;;;1.10;;
7158;SDS011;63175;52.374;13.132;2023-07-28T10:56:03;2.80;;;1.07;;
7158;SDS011;63175;52.374;13.132;2023-07-28T10:58:33;2.60;;;1.13;;
7158;SDS011;63175;52.374;13.132;2023-07-28T11:01:01;1.00;;;1.00;;
7158;SDS011;63175;52.374;13.132;2023-07-28T11:03:29;1.30;;;1.23;;
7158;SDS011;63175;52.374;13.132;2023-07-28T11:05:56;3.17;;;1.30;;
7158;SDS011;63175;52.374;13.132;2023-07-28T11:08:23;1.13;;;1.03;;
7158;SDS011;63175;52.374;13.132;2023-07-28T11:10:50;3.07;;;1.50;;
7158;SDS011;63175;52.374;13.132;2023-07-28T11:13:17;1.60;;;1.50;;
7158;SDS011;63175;52.374;13.132;2023-07-28T11:15:44;4.83;;;1.13;;
7158;SDS011;63175;52.374;13.132;2023-07-28T11:18:11;1.20;;;1.17;;
7158;SDS011;63175;52.374;13.132;2023-07-28T11:20:43;1.20;;;1.20;;
7158;SDS011;63175;52.374;13.132;2023-07-28T11:23:13;1.20;;;1.10;;
7158;SDS011;63175;52.374;13.132;2023-07-28T11:25:40;1.30;;;1.27;;
7158;SDS011;63175;52.374;13.132;2023-07-28T11:28:09;1.23;;;1.20;;
7158;SDS011;63175;52.374;13.132;2023-07-28T11:30:36;1.33;;;1.20;;
7158;SDS011;63175;52.374;13.132;2023-07-28T11:33:04;2.90;;;1.60;;
7158;SDS011;63175;52.374;13.132;2023-07-28T11:35:36;1.10;;;1.10;;
7158;SDS011;63175;52.374;13.132;2023-07-28T11:38:05;1.00;;;1.00;;
7158;SDS011;63175;52.374;13.132;2023-07-28T11:40:33;1.83;;;1.30;;
7158;SDS011;63175;52.374;13.132;2023-07-28T11:43:01;2.70;;;1.00;;
7158;SDS011;63175;52.374;13.132;2023-07-28T11:45:29;1.50;;;1.40;;
7158;SDS011;63175;52.374;13.132;2023-07-28T11:47:56;1.23;;;1.13;;
7158;SDS011;63175;52.374;13.132;2023-07-28T11:50:24;1.43;;;1.33;;
7158;SDS011;63175;52.374;13.132;2023-07-28T11:52:52;1.70;;;1.60;;
7158;SDS011;63175;52.374;13.132;2023-07-28T11:55:21;1.47;;;1.37;;
7158;SDS011;63175;52.374;13.132;2023-07-28T11:57:49;1.00;;;1.00;;
7158;SDS011;63175;52.374;13.132;2023-07-28T12:00:17;1.70;;;1.60;;
7158;SDS011;63175;52.374;13.132;2023-07-28T12:02:59;1.93;;;1.40;;
7158;SDS011;63175;52.374;13.132;2023-07-28T12:05:28;4.60;;;2.00;;
7158;SDS011;63175;52.374;13.132;2023-07-28T12:07:56;2.33;;;1.83;;
7158;SDS011;63175;52.374;13.132;2023-07-28T12:10:24;2.00;;;1.80;;
7158;SDS011;63175;52.374;13.132;2023-07-28T12:12:51;2.00;;;1.90;;
7158;SDS011;63175;52.374;13.132;2023-07-28T12:15:21;1.87;;;1.77;;
7158;SDS011;63175;52.374;13.132;2023-07-28T12:20:45;1.83;;;1.73;;
7158;SDS011;63175;52.374;13.132;2023-07-28T12:23:13;6.70;;;1.90;;
7158;SDS011;63175;52.374;13.132;2023-07-28T12:25:42;3.03;;;2.00;;
7158;SDS011;63175;52.374;13.132;2023-07-28T12:28:10;1.77;;;1.67;;
7158;SDS011;63175;52.374;13.132;2023-07-28T12:30:37;2.10;;;2.00;;
7158;SDS011;63175;52.374;13.132;2023-07-28T12:33:04;1.83;;;1.73;;
7158;SDS011;63175;52.374;13.132;2023-07-28T12:35:32;1.73;;;1.63;;
7158;SDS011;63175;52.374;13.132;2023-07-28T12:37:59;2.00;;;1.90;;
7158;SDS011;63175;52.374;13.132;2023-07-28T12:40:29;1.60;;;1.50;;
7158;SDS011;63175;52.374;13.132;2023-07-28T12:42:58;1.73;;;1.63;;
7158;SDS011;63175;52.374;13.132;2023-07-28T12:45:26;1.73;;;1.63;;
7158;SDS011;63175;52.374;13.132;2023-07-28T12:47:53;1.40;;;1.40;;
7158;SDS011;63175;52.374;13.132;2023-07-28T12:50:20;1.97;;;1.77;;
7158;SDS011;63175;52.374;13.132;2023-07-28T12:52:47;1.27;;;1.27;;
7158;SDS011;63175;52.374;13.132;2023-07-28T12:55:15;1.80;;;1.70;;
7158;SDS011;63175;52.374;13.132;2023-07-28T12:57:42;1.73;;;1.63;;
7158;SDS011;63175;52.374;13.132;2023-07-28T13:00:11;1.77;;;1.67;;
7158;SDS011;63175;52.374;13.132;2023-07-28T13:02:39;4.00;;;2.00;;
7158;SDS011;63175;52.374;13.132;2023-07-28T13:05:07;1.63;;;1.53;;
7158;SDS011;63175;52.374;13.132;2023-07-28T13:07:36;1.90;;;1.80;;
7158;SDS011;63175;52.374;13.132;2023-07-28T13:10:03;1.60;;;1.50;;
7158;SDS011;63175;52.374;13.132;2023-07-28T13:12:31;2.03;;;1.80;;
7158;SDS011;63175;52.374;13.132;2023-07-28T13:14:58;1.60;;;1.50;;
7158;SDS011;63175;52.374;13.132;2023-07-28T13:17:26;1.50;;;1.40;;
7158;SDS011;63175;52.374;13.132;2023-07-28T13:19:53;1.33;;;1.03;;
7158;SDS011;63175;52.374;13.132;2023-07-28T13:22:22;1.33;;;1.23;;
7158;SDS011;63175;52.374;13.132;2023-07-28T13:24:49;0.97;;;0.97;;
7158;SDS011;63175;52.374;13.132;2023-07-28T13:27:15;1.30;;;1.20;;
7158;SDS011;63175;52.374;13.132;2023-07-28T13:29:42;1.17;;;1.13;;
7158;SDS011;63175;52.374;13.132;2023-07-28T13:32:16;0.87;;;0.87;;
7158;SDS011;63175;52.374;13.132;2023-07-28T13:34:45;1.10;;;1.10;;
7158;SDS011;63175;52.374;13.132;2023-07-28T13:37:12;1.20;;;1.20;;
7158;SDS011;63175;52.374;13.132;2023-07-28T13:39:39;0.80;;;0.80;;
7158;SDS011;63175;52.374;13.132;2023-07-28T13:42:06;0.97;;;0.97;;
7158;SDS011;63175;52.374;13.132;2023-07-28T13:44:32;1.30;;;1.20;;
7158;SDS011;63175;52.374;13.132;2023-07-28T13:46:59;1.00;;;1.00;;
7158;SDS011;63175;52.374;13.132;2023-07-28T13:49:26;1.23;;;1.13;;
7158;SDS011;63175;52.374;13.132;2023-07-28T13:51:54;1.30;;;1.20;;
7158;SDS011;63175;52.374;13.132;2023-07-28T13:54:21;1.10;;;1.10;;
7158;SDS011;63175;52.374;13.132;2023-07-28T13:56:48;1.60;;;1.50;;
7158;SDS011;63175;52.374;13.132;2023-07-28T13:59:15;2.00;;;1.90;;
7158;SDS011;63175;52.374;13.132;2023-07-28T14:01:42;1.40;;;1.40;;
7158;SDS011;63175;52.374;13.132;2023-07-28T14:04:09;1.50;;;1.50;;
7158;SDS011;63175;52.374;13.132;2023-07-28T14:06:36;1.33;;;1.27;;
7158;SDS011;63175;52.374;13.132;2023-07-28T14:09:04;1.57;;;1.47;;
7158;SDS011;63175;52.374;13.132;2023-07-28T14:11:31;1.90;;;1.27;;
7158;SDS011;63175;52.374;13.132;2023-07-28T14:13:58;1.80;;;1.70;;
7158;SDS011;63175;52.374;13.132;2023-07-28T14:16:24;1.03;;;1.03;;
7158;SDS011;63175;52.374;13.132;2023-07-28T14:18:51;1.40;;;1.30;;
7158;SDS011;63175;52.374;13.132;2023-07-28T14:21:18;1.33;;;1.33;;
7158;SDS011;63175;52.374;13.132;2023-07-28T14:23:45;1.60;;;1.50;;
7158;SDS011;63175;52.374;13.132;2023-07-28T14:26:13;1.03;;;1.03;;
7158;SDS011;63175;52.374;13.132;2023-07-28T14:28:40;1.40;;;1.30;;
7158;SDS011;63175;52.374;13.132;2023-07-28T14:31:07;1.40;;;1.30;;
7158;SDS011;63175;52.374;13.132;2023-07-28T14:33:34;1.70;;;1.60;;
7158;SDS011;63175;52.374;13.132;2023-07-28T14:36:01;1.20;;;1.10;;
7158;SDS011;63175;52.374;13.132;2023-07-28T14:38:28;1.50;;;1.40;;
7158;SDS011;63175;52.374;13.132;2023-07-28T14:40:55;1.67;;;1.57;;
7158;SDS011;63175;52.374;13.132;2023-07-28T14:43:23;1.63;;;1.53;;
7158;SDS011;63175;52.374;13.132;2023-07-28T14:45:50;1.60;;;1.50;;
7158;SDS011;63175;52.374;13.132;2023-07-28T14:48:17;2.97;;;2.17;;
7158;SDS011;63175;52.374;13.132;2023-07-28T14:50:44;1.80;;;1.70;;
7158;SDS011;63175;52.374;13.132;2023-07-28T14:55:59;1.60;;;1.50;;
7158;SDS011;63175;52.374;13.132;2023-07-28T14:58:28;1.83;;;1.73;;
7158;SDS011;63175;52.374;13.132;2023-07-28T15:00:55;1.60;;;1.50;;